Time;durP1;ratioP1;P1;durP2;ratioP2;P2;SDS_P1;SDS_P2;PMS_P1;PMS_P2;Temp;Humidity;BMP_temperature;BMP_pressure;BME280_temperature;BME280_humidity;BME280_pressure;Samples;Min_cycle;Max_cycle;Signal;HPM_P1;HPM_P2
2022/01/19 00:00:12;;;;;;;88.53;26.92;;;4.50;99.90;;;;;;5037178;28;254229;-86
2022/01/19 00:02:39;;;;;;;83.40;24.98;;;4.50;99.90;;;;;;5059232;28;20045;-86
2022/01/19 00:05:09;;;;;;;79.38;25.50;;;4.50;99.90;;;;;;5035504;28;82525;-86
2022/01/19 00:07:36;;;;;;;88.32;27.45;;;4.60;99.90;;;;;;5040960;28;20056;-86
2022/01/19 00:10:05;;;;;;;77.30;25.65;;;4.60;99.90;;;;;;5063136;28;154640;-86
2022/01/19 00:12:32;;;;;;;83.93;27.05;;;4.60;99.90;;;;;;5061905;28;20064;-86
2022/01/19 00:14:58;;;;;;;71.97;25.15;;;4.60;99.90;;;;;;5060537;28;247021;-86
2022/01/19 00:17:27;;;;;;;73.72;24.58;;;4.60;99.90;;;;;;5044693;28;20063;-86
2022/01/19 00:19:53;;;;;;;74.10;25.63;;;4.60;99.90;;;;;;5027723;28;85617;-86
2022/01/19 00:22:20;;;;;;;77.30;27.17;;;4.70;99.90;;;;;;5040929;28;20056;-86
2022/01/19 00:24:48;;;;;;;80.35;27.33;;;4.70;99.90;;;;;;5049296;28;65758;-86
2022/01/19 00:27:14;;;;;;;48.20;18.73;;;4.70;99.90;;;;;;5056979;28;20056;-86
2022/01/19 00:29:41;;;;;;;64.88;23.17;;;4.70;99.90;;;;;;5045800;28;169080;-86
2022/01/19 00:32:07;;;;;;;66.93;25.48;;;4.70;99.90;;;;;;5040857;28;20047;-86
2022/01/19 00:34:34;;;;;;;73.07;24.20;;;4.70;99.90;;;;;;5024991;28;152605;-86
2022/01/19 00:37:03;;;;;;;72.53;26.10;;;4.70;99.90;;;;;;5046045;28;20052;-86
2022/01/19 00:39:31;;;;;;;71.68;26.65;;;4.70;99.90;;;;;;5023101;28;58675;-85
2022/01/19 00:41:58;;;;;;;72.72;24.45;;;4.70;99.90;;;;;;5054372;28;20048;-86
2022/01/19 00:44:24;;;;;;;65.38;25.70;;;4.70;99.90;;;;;;5065720;28;88537;-85
2022/01/19 00:46:50;;;;;;;66.03;25.23;;;4.70;99.90;;;;;;5084557;28;20052;-86
2022/01/19 00:49:16;;;;;;;74.32;25.98;;;4.70;99.90;;;;;;5049198;28;220583;-86
2022/01/19 00:51:42;;;;;;;69.95;26.25;;;4.70;99.90;;;;;;5049044;28;20048;-85
2022/01/19 00:54:08;;;;;;;70.50;27.27;;;4.60;99.90;;;;;;5060653;28;208052;-85
2022/01/19 00:56:35;;;;;;;77.95;27.48;;;4.60;99.90;;;;;;5062163;28;20067;-85
2022/01/19 00:59:01;;;;;;;67.45;26.33;;;4.60;99.90;;;;;;5062809;28;174615;-86
2022/01/19 01:01:27;;;;;;;72.10;27.38;;;4.60;99.90;;;;;;5061617;28;20044;-86
2022/01/19 01:03:53;;;;;;;72.50;26.52;;;4.60;99.90;;;;;;5008710;28;273520;-86
2022/01/19 01:06:20;;;;;;;78.20;27.52;;;4.60;99.90;;;;;;5062592;28;20053;-86
2022/01/19 01:08:46;;;;;;;72.65;27.58;;;4.60;99.90;;;;;;5040516;28;260426;-86
2022/01/19 01:11:12;;;;;;;76.25;25.77;;;4.70;99.90;;;;;;5053479;28;20045;-86
2022/01/19 01:17:09;;;;;;;81.03;26.63;;;4.70;99.90;;;;;;5063494;28;20501;-86
2022/01/19 01:19:14;;;;;;;77.18;27.42;;;4.70;99.90;;;;;;5042494;28;172075;-86
2022/01/19 01:21:40;;;;;;;79.10;27.17;;;4.70;99.90;;;;;;5071216;28;20060;-85
2022/01/19 01:24:07;;;;;;;75.10;25.48;;;4.70;99.90;;;;;;5047489;28;175198;-86
2022/01/19 01:26:33;;;;;;;74.63;26.50;;;4.70;99.90;;;;;;5043980;28;20052;-85
2022/01/19 01:28:59;;;;;;;81.72;27.75;;;4.60;99.90;;;;;;5038417;28;251750;-86
2022/01/19 01:31:25;;;;;;;82.70;28.77;;;4.70;99.90;;;;;;5028049;28;20064;-86
2022/01/19 01:33:51;;;;;;;82.30;28.25;;;4.70;99.90;;;;;;5032581;28;265971;-86
2022/01/19 01:36:17;;;;;;;92.90;31.15;;;4.70;99.90;;;;;;5055832;28;20303;-86
2022/01/19 01:38:44;;;;;;;92.35;29.35;;;4.70;99.90;;;;;;5040917;28;265813;-86
2022/01/19 01:41:13;;;;;;;91.72;30.90;;;4.70;99.90;;;;;;5042102;28;20060;-86
2022/01/19 01:43:41;;;;;;;93.63;30.00;;;4.70;99.90;;;;;;5038001;28;248472;-86
2022/01/19 01:46:14;;;;;;;104.38;30.10;;;4.70;99.90;;;;;;5060976;28;20050;-86
2022/01/19 01:48:45;;;;;;;96.55;30.08;;;4.70;99.90;;;;;;5023345;28;257713;-86
2022/01/19 01:53:58;;;;;;;92.80;28.20;;;4.70;99.90;;;;;;5037584;28;257588;-84
2022/01/19 01:56:25;;;;;;;81.82;28.40;;;4.70;99.90;;;;;;5042049;28;20052;-88
2022/01/19 01:58:51;;;;;;;71.70;26.40;;;4.70;99.90;;;;;;5038460;28;268771;-86
2022/01/19 02:01:17;;;;;;;76.25;27.65;;;4.70;99.90;;;;;;5041637;28;20029;-86
2022/01/19 02:03:45;;;;;;;79.03;25.88;;;4.60;99.90;;;;;;5025872;28;235219;-86
2022/01/19 02:09:13;;;;;;;92.93;27.00;;;4.60;99.90;;;;;;5037990;28;270533;-85
2022/01/19 02:23:32;;;;;;;80.18;24.35;;;4.50;99.90;;;;;;5072495;28;20126;-86
2022/01/19 02:26:01;;;;;;;70.68;24.13;;;4.50;99.90;;;;;;5068501;28;251786;-86
2022/01/19 02:40:13;;;;;;;73.50;24.70;;;4.40;99.90;;;;;;5041014;28;195916;-86
2022/01/19 02:43:19;;;;;;;;;;;;;;;;;;;;;
2022/01/19 02:51:37;;;;;;;;;;;;;;;;;;;;;
2022/01/19 02:54:04;;;;;;;96.43;27.98;;;4.30;99.90;;;;;;5038083;28;243221;-85
2022/01/19 02:56:38;;;;;;;93.80;28.80;;;4.30;99.90;;;;;;5056763;28;20066;-85
2022/01/19 02:59:16;;;;;;;84.72;29.35;;;4.30;99.90;;;;;;5051800;28;250352;-85
2022/01/19 03:10:04;;;;;;;97.55;29.45;;;4.20;99.90;;;;;;5058270;28;263623;-85
2022/01/19 03:12:31;;;;;;;96.03;29.60;;;4.20;99.90;;;;;;5039756;28;20044;-84
2022/01/19 03:14:58;;;;;;;105.88;30.80;;;4.20;99.90;;;;;;5036867;28;205711;-85
2022/01/19 03:17:24;;;;;;;99.35;30.33;;;4.30;99.90;;;;;;5038571;28;20056;-85
2022/01/19 03:19:51;;;;;;;93.95;29.83;;;4.20;99.90;;;;;;5035323;28;211220;-85
2022/01/19 03:22:25;;;;;;;90.10;29.58;;;4.30;99.90;;;;;;5036351;28;20044;-85
2022/01/19 03:24:57;;;;;;;84.85;29.63;;;4.30;99.90;;;;;;5029704;28;99970;-84
2022/01/19 03:27:23;;;;;;;90.97;28.98;;;4.20;99.90;;;;;;5040096;28;20055;-85
2022/01/19 03:29:52;;;;;;;78.10;28.45;;;4.20;99.90;;;;;;5060910;28;249033;-85
2022/01/19 03:32:21;;;;;;;83.88;28.42;;;4.20;99.90;;;;;;5062055;28;20509;-85
2022/01/19 03:34:47;;;;;;;74.72;28.10;;;4.20;99.90;;;;;;5034408;28;52977;-85
2022/01/19 03:37:13;;;;;;;77.35;27.27;;;4.10;99.90;;;;;;5064235;28;20036;-85
2022/01/19 03:39:39;;;;;;;79.05;29.77;;;4.10;99.90;;;;;;5051405;28;44906;-85
2022/01/19 03:42:06;;;;;;;78.60;27.20;;;4.10;99.90;;;;;;5043863;28;20060;-85
2022/01/19 03:44:33;;;;;;;69.55;27.48;;;4.10;99.90;;;;;;5048621;28;71942;-86
2022/01/19 03:47:02;;;;;;;83.82;28.73;;;4.10;99.90;;;;;;5061576;28;20044;-85
2022/01/19 03:49:33;;;;;;;76.60;28.20;;;4.00;99.90;;;;;;5038125;28;244203;-85
2022/01/19 03:52:02;;;;;;;99.03;32.80;;;4.00;99.90;;;;;;5046357;28;20044;-85
2022/01/19 03:54:32;;;;;;;87.57;31.85;;;4.00;99.90;;;;;;5051794;28;64700;-85
2022/01/19 03:56:59;;;;;;;73.78;30.77;;;4.00;99.90;;;;;;5091936;28;20028;-85
2022/01/19 03:59:31;;;;;;;85.72;31.85;;;4.00;99.90;;;;;;5040482;28;186594;-85
2022/01/19 04:01:58;;;;;;;91.55;31.85;;;4.00;99.90;;;;;;5046466;28;20048;-85
2022/01/19 04:09:18;;;;;;;105.85;34.85;;;4.00;99.90;;;;;;5048365;28;73511;-84
2022/01/19 04:11:47;;;;;;;92.05;33.40;;;4.00;99.90;;;;;;5046289;28;20043;-84
2022/01/19 04:14:22;;;;;;;91.93;32.90;;;4.00;99.90;;;;;;5028524;28;126028;-85
2022/01/19 04:16:49;;;;;;;88.40;33.05;;;4.00;99.90;;;;;;5047847;28;20053;-85
2022/01/19 04:21:42;;;;;;;88.07;35.33;;;4.00;99.90;;;;;;5074592;28;20044;-85
2022/01/19 04:24:08;;;;;;;93.07;34.30;;;4.10;99.90;;;;;;5028328;28;146903;-85
2022/01/19 04:26:34;;;;;;;88.20;31.88;;;4.00;99.90;;;;;;5040527;28;20516;-85
2022/01/19 04:29:03;;;;;;;91.47;34.55;;;4.00;99.90;;;;;;5021157;28;265984;-85
2022/01/19 04:31:29;;;;;;;90.95;33.90;;;4.10;99.90;;;;;;5043001;28;20068;-84
2022/01/19 04:34:03;;;;;;;90.10;33.72;;;4.00;99.90;;;;;;5026720;28;243943;-84
2022/01/19 04:36:46;;;;;;;89.35;32.97;;;4.00;99.90;;;;;;5057511;28;20049;-84
2022/01/19 04:48:36;;;;;;;;;;;;;;;;;;;;;
2022/01/19 05:07:28;;;;;;;82.38;32.25;;;3.80;99.90;;;;;;4974974;28;20039;-84
2022/01/19 05:15:09;;;;;;;81.63;31.55;;;3.90;99.90;;;;;;4949567;28;20539;-85
2022/01/19 05:17:36;;;;;;;81.82;31.52;;;3.90;99.90;;;;;;5058496;28;20136;-86
2022/01/19 05:20:08;;;;;;;73.38;32.13;;;3.80;99.90;;;;;;5055539;28;256158;-85
2022/01/19 05:22:34;;;;;;;77.97;33.42;;;3.90;99.90;;;;;;5055701;28;20067;-85
2022/01/19 05:25:03;;;;;;;75.10;31.30;;;3.80;99.90;;;;;;5031069;28;50596;-85
2022/01/19 05:27:30;;;;;;;70.03;32.40;;;3.80;99.90;;;;;;5041121;28;20055;-85
2022/01/19 05:29:56;;;;;;;79.53;33.03;;;3.80;99.90;;;;;;5035539;28;108116;-85
2022/01/19 05:32:23;;;;;;;77.75;33.92;;;3.90;99.90;;;;;;5039681;28;20052;-85
2022/01/19 05:34:52;;;;;;;81.53;32.13;;;3.80;99.90;;;;;;5040690;28;225810;-85
2022/01/19 05:37:18;;;;;;;68.90;31.27;;;3.80;99.90;;;;;;5058970;28;20055;-85
2022/01/19 05:39:44;;;;;;;67.75;28.80;;;3.80;99.90;;;;;;5045692;28;178346;-85
2022/01/19 05:42:14;;;;;;;76.70;31.83;;;3.80;99.90;;;;;;5060342;28;20517;-85
2022/01/19 05:44:45;;;;;;;80.13;33.35;;;3.80;99.90;;;;;;5046450;28;159227;-85
2022/01/19 05:47:17;;;;;;;82.23;33.77;;;3.80;99.90;;;;;;5064156;28;20048;-86
2022/01/19 05:49:43;;;;;;;73.13;31.20;;;3.80;99.90;;;;;;5039803;28;169679;-87
2022/01/19 05:52:12;;;;;;;78.72;33.22;;;3.80;99.90;;;;;;5048329;28;20052;-85
2022/01/19 05:54:39;;;;;;;69.90;31.88;;;3.80;99.90;;;;;;5049032;28;88094;-85
2022/01/19 05:57:06;;;;;;;70.20;31.38;;;3.90;99.90;;;;;;5062161;28;20071;-83
2022/01/19 05:59:33;;;;;;;76.68;32.80;;;3.80;99.90;;;;;;5047618;28;105575;-85
2022/01/19 06:01:59;;;;;;;76.55;32.30;;;3.90;99.90;;;;;;5058682;28;20048;-85
2022/01/19 06:04:25;;;;;;;72.15;31.92;;;3.90;99.90;;;;;;5016399;28;169667;-85
2022/01/19 06:06:55;;;;;;;80.75;32.83;;;3.90;99.90;;;;;;5041429;28;20056;-85
2022/01/19 06:09:49;;;;;;;76.38;33.47;;;3.90;99.90;;;;;;5022768;28;248489;-86
2022/01/19 06:12:17;;;;;;;70.93;32.95;;;3.90;99.90;;;;;;5057819;28;20059;-85
2022/01/19 06:14:44;;;;;;;70.05;31.83;;;3.90;99.90;;;;;;5039158;28;193365;-85
2022/01/19 06:17:13;;;;;;;71.93;32.50;;;3.90;99.90;;;;;;5039394;28;20049;-85
2022/01/19 06:19:39;;;;;;;73.45;31.45;;;3.90;99.90;;;;;;5053506;28;248224;-86
2022/01/19 06:22:06;;;;;;;71.22;30.65;;;3.90;99.90;;;;;;5040042;28;20138;-85
2022/01/19 06:24:32;;;;;;;70.10;31.98;;;3.90;99.90;;;;;;5025759;28;169044;-85
2022/01/19 06:26:58;;;;;;;73.70;32.53;;;3.90;99.90;;;;;;5052886;28;20063;-85
2022/01/19 06:29:24;;;;;;;67.10;32.75;;;3.90;99.90;;;;;;5024578;28;116027;-86
2022/01/19 06:31:51;;;;;;;76.45;33.55;;;3.90;99.90;;;;;;5039904;28;20060;-86
2022/01/19 06:34:17;;;;;;;67.40;30.73;;;3.90;99.90;;;;;;5037142;28;89536;-85
2022/01/19 06:36:44;;;;;;;76.15;32.72;;;4.00;99.90;;;;;;5037759;28;20057;-85
2022/01/19 06:39:10;;;;;;;70.95;32.28;;;3.90;99.90;;;;;;5061514;28;182453;-86
2022/01/19 06:41:36;;;;;;;74.15;32.97;;;4.00;99.90;;;;;;5064885;28;20044;-86
2022/01/19 06:44:03;;;;;;;77.43;34.15;;;4.00;99.90;;;;;;5020809;28;221394;-87
2022/01/19 06:46:32;;;;;;;79.95;32.08;;;4.00;99.90;;;;;;5047639;28;20063;-87
2022/01/19 06:49:08;;;;;;;75.05;33.67;;;4.00;99.90;;;;;;5034862;28;246461;-87
2022/01/19 06:51:34;;;;;;;71.75;34.25;;;4.00;99.90;;;;;;5046098;28;20052;-86
2022/01/19 06:54:01;;;;;;;65.38;31.58;;;4.00;99.90;;;;;;5041720;28;146543;-86
2022/01/19 06:56:27;;;;;;;70.25;32.58;;;4.00;99.90;;;;;;5075078;28;20049;-86
2022/01/19 06:58:53;;;;;;;71.03;33.20;;;4.00;99.90;;;;;;5037910;28;263505;-85
2022/01/19 07:01:20;;;;;;;67.32;31.42;;;4.00;99.90;;;;;;5073146;28;20043;-85
2022/01/19 07:03:47;;;;;;;75.20;34.22;;;4.10;99.90;;;;;;5004859;28;270160;-86
2022/01/19 07:06:14;;;;;;;66.75;32.40;;;4.10;99.90;;;;;;5039641;28;20052;-85
2022/01/19 07:08:41;;;;;;;74.60;34.30;;;4.10;99.90;;;;;;5043460;28;267509;-86
2022/01/19 07:11:07;;;;;;;71.70;33.67;;;4.00;99.90;;;;;;5041662;28;20060;-85
2022/01/19 07:13:33;;;;;;;72.28;33.65;;;4.10;99.90;;;;;;5041446;28;20125;-86
2022/01/19 07:15:59;;;;;;;78.22;34.92;;;4.10;99.90;;;;;;5052373;28;81040;-86
2022/01/19 07:18:26;;;;;;;63.33;31.42;;;4.10;99.90;;;;;;5043894;28;20056;-86
2022/01/19 07:20:52;;;;;;;77.40;33.17;;;4.10;99.90;;;;;;5031969;28;186720;-86
2022/01/19 07:23:18;;;;;;;71.80;31.98;;;4.10;99.90;;;;;;5056223;28;20048;-86
2022/01/19 07:25:44;;;;;;;70.45;33.08;;;4.10;99.90;;;;;;5057801;28;264325;-86
2022/01/19 07:28:11;;;;;;;70.85;31.90;;;4.10;99.90;;;;;;5076671;28;20142;-86
2022/01/19 07:30:38;;;;;;;72.05;32.45;;;4.10;99.90;;;;;;5037661;28;149201;-85
2022/01/19 07:33:05;;;;;;;73.30;34.00;;;4.20;99.90;;;;;;5056323;28;20057;-85
2022/01/19 07:35:32;;;;;;;74.88;34.13;;;4.10;99.90;;;;;;5044669;28;44820;-85
2022/01/19 07:37:58;;;;;;;67.13;32.38;;;4.10;99.90;;;;;;5039273;28;20509;-86
2022/01/19 07:40:25;;;;;;;73.18;33.38;;;4.10;99.90;;;;;;5024350;28;35223;-86
2022/01/19 07:42:55;;;;;;;75.65;30.30;;;4.20;99.90;;;;;;5041977;28;20051;-86
2022/01/19 07:45:21;;;;;;;68.60;32.85;;;4.10;99.90;;;;;;5029504;28;174793;-86
2022/01/19 07:47:47;;;;;;;68.50;32.30;;;4.10;99.90;;;;;;5057084;28;20053;-86
2022/01/19 07:50:16;;;;;;;73.32;33.03;;;4.10;99.90;;;;;;5041341;28;170628;-86
2022/01/19 07:52:43;;;;;;;74.25;32.95;;;4.10;99.90;;;;;;5055604;28;20052;-84
2022/01/19 07:55:10;;;;;;;70.38;33.00;;;4.10;99.90;;;;;;5022676;28;252403;-85
2022/01/19 07:57:37;;;;;;;76.05;34.00;;;4.10;99.90;;;;;;5038407;28;20067;-86
2022/01/19 08:00:04;;;;;;;67.38;31.67;;;4.10;99.90;;;;;;5025150;28;96213;-85
2022/01/19 08:02:33;;;;;;;63.63;30.73;;;4.10;99.90;;;;;;5061743;28;20063;-86
2022/01/19 08:04:59;;;;;;;72.63;32.30;;;4.10;99.90;;;;;;5009580;28;124217;-86
2022/01/19 08:07:26;;;;;;;67.75;31.60;;;4.10;99.90;;;;;;5056054;28;20048;-85
2022/01/19 08:09:52;;;;;;;68.85;31.40;;;4.10;99.90;;;;;;5036267;28;239951;-86
2022/01/19 08:12:18;;;;;;;63.70;29.98;;;4.10;99.90;;;;;;5057938;28;20061;-84
2022/01/19 08:14:44;;;;;;;68.18;29.58;;;4.00;99.90;;;;;;5043367;28;93962;-84
2022/01/19 08:17:12;;;;;;;68.72;31.50;;;4.00;99.90;;;;;;5057384;28;20056;-85
2022/01/19 08:19:38;;;;;;;66.88;30.48;;;4.00;99.90;;;;;;5044751;28;89572;-84
2022/01/19 08:22:04;;;;;;;68.90;31.33;;;4.00;99.90;;;;;;5050272;28;20373;-85
2022/01/19 08:24:30;;;;;;;65.45;30.27;;;4.10;99.90;;;;;;5035331;28;68848;-85
2022/01/19 08:26:59;;;;;;;71.15;32.30;;;4.10;99.90;;;;;;5066670;28;20052;-84
2022/01/19 08:29:25;;;;;;;67.40;31.10;;;4.10;99.90;;;;;;5026356;28;212732;-84
2022/01/19 08:31:52;;;;;;;71.13;32.70;;;4.00;99.90;;;;;;5044736;28;20032;-82
2022/01/19 08:34:21;;;;;;;59.42;27.70;;;4.00;99.90;;;;;;5029350;28;171380;-84
2022/01/19 08:36:47;;;;;;;66.85;30.67;;;4.00;99.90;;;;;;5046399;28;20060;-84
2022/01/19 08:39:14;;;;;;;67.45;29.92;;;4.00;99.90;;;;;;5046055;28;126882;-85
2022/01/19 08:41:42;;;;;;;68.90;30.10;;;4.00;99.90;;;;;;5059332;28;20102;-85
2022/01/19 08:44:08;;;;;;;70.72;30.58;;;4.00;99.90;;;;;;5066215;28;257412;-85
2022/01/19 08:46:34;;;;;;;68.00;31.35;;;4.10;99.90;;;;;;5063956;28;20067;-85
2022/01/19 08:49:00;;;;;;;63.40;30.85;;;4.10;99.90;;;;;;5023659;28;275319;-85
2022/01/19 08:51:26;;;;;;;67.22;29.77;;;4.10;99.90;;;;;;5043549;28;20060;-85
2022/01/19 08:53:52;;;;;;;71.18;32.22;;;4.10;99.90;;;;;;5042402;28;272983;-85
2022/01/19 08:56:19;;;;;;;69.38;32.38;;;4.10;99.90;;;;;;5080734;28;20056;-86
2022/01/19 08:58:45;;;;;;;70.63;32.58;;;4.20;99.90;;;;;;5025384;28;253954;-85
2022/01/19 09:01:11;;;;;;;63.42;31.27;;;4.20;99.90;;;;;;5046923;28;20041;-85
2022/01/19 09:03:37;;;;;;;64.60;31.52;;;4.20;99.90;;;;;;5042136;28;270397;-85
2022/01/19 09:06:08;;;;;;;71.13;32.95;;;4.20;99.90;;;;;;5034798;28;93577;-85
2022/01/19 09:08:34;;;;;;;66.13;31.45;;;4.20;99.90;;;;;;5045133;28;20048;-85
2022/01/19 09:11:02;;;;;;;63.95;30.90;;;4.20;99.90;;;;;;5048284;28;124181;-86
2022/01/19 09:13:28;;;;;;;67.25;32.28;;;4.30;99.90;;;;;;5050221;28;20048;-85
2022/01/19 09:15:55;;;;;;;65.57;31.35;;;4.30;99.90;;;;;;5071778;28;266633;-84
2022/01/19 09:18:34;;;;;;;65.60;31.35;;;4.30;99.90;;;;;;5075134;28;20048;-84
2022/01/19 09:21:03;;;;;;;64.80;31.67;;;4.30;99.90;;;;;;5059830;28;156622;-85
2022/01/19 09:23:30;;;;;;;72.47;34.53;;;4.30;99.90;;;;;;5062890;28;20053;-85
2022/01/19 09:25:57;;;;;;;60.90;31.73;;;4.30;99.90;;;;;;5062030;28;253011;-85
2022/01/19 09:28:25;;;;;;;65.53;32.72;;;4.30;99.90;;;;;;5072523;28;20053;-85
2022/01/19 09:30:51;;;;;;;63.50;31.05;;;4.30;99.90;;;;;;5051140;28;185313;-84
2022/01/19 09:33:22;;;;;;;67.85;31.23;;;4.30;99.90;;;;;;5077095;28;20040;-85
2022/01/19 09:36:05;;;;;;;64.07;33.17;;;4.40;99.90;;;;;;5037357;28;178805;-85
2022/01/19 09:38:35;;;;;;;60.92;31.38;;;4.40;99.90;;;;;;5060056;28;20041;-84
2022/01/19 09:41:07;;;;;;;64.10;31.67;;;4.40;99.90;;;;;;5048840;28;212164;-85
2022/01/19 09:43:35;;;;;;;62.55;30.35;;;4.40;99.90;;;;;;5076630;28;20053;-85
2022/01/19 09:46:02;;;;;;;63.65;31.80;;;4.40;99.90;;;;;;5030620;28;259341;-85
2022/01/19 09:48:35;;;;;;;67.88;32.10;;;4.40;99.90;;;;;;5047123;28;20324;-83
2022/01/19 09:51:13;;;;;;;63.05;31.52;;;4.40;99.90;;;;;;5045924;28;24769;-83
2022/01/19 09:53:44;;;;;;;57.30;29.50;;;4.50;99.90;;;;;;5048771;28;276227;-82
2022/01/19 09:56:10;;;;;;;63.53;32.53;;;4.50;99.90;;;;;;5079352;28;20035;-82
2022/01/19 09:58:37;;;;;;;62.47;32.53;;;4.60;99.90;;;;;;5032375;28;265228;-83
2022/01/19 10:01:04;;;;;;;62.25;32.80;;;4.60;99.90;;;;;;5057462;28;20041;-84
2022/01/19 10:03:34;;;;;;;60.28;31.65;;;4.60;99.90;;;;;;5063814;28;20056;-83
2022/01/19 10:06:15;;;;;;;59.25;30.17;;;4.60;99.90;;;;;;5032821;28;249985;-84
2022/01/19 10:08:44;;;;;;;;;;;4.60;99.90;;;;;;5027554;28;244041;-85
2022/01/19 10:17:06;;;;;;;60.20;31.20;;;4.70;99.90;;;;;;5060616;28;20051;-84
2022/01/19 10:19:49;;;;;;;61.72;31.10;;;4.70;99.90;;;;;;5043661;28;127311;-83
2022/01/19 10:22:17;;;;;;;58.55;30.80;;;4.80;99.90;;;;;;5057507;28;20052;-84
2022/01/19 10:24:50;;;;;;;62.28;31.58;;;4.70;99.90;;;;;;5042333;28;123543;-84
2022/01/19 10:27:42;;;;;;;57.42;31.48;;;4.80;99.90;;;;;;5046887;28;20417;-83
2022/01/19 10:30:08;;;;;;;59.15;32.97;;;4.80;99.90;;;;;;5045625;28;177722;-83
2022/01/19 10:32:55;;;;;;;57.53;31.98;;;4.80;99.90;;;;;;5056734;28;20056;-84
2022/01/19 10:35:21;;;;;;;64.57;33.70;;;4.90;99.90;;;;;;5044148;28;20056;-83
2022/01/19 10:38:25;;;;;;;64.68;34.80;;;4.90;99.90;;;;;;5044342;28;20250;-84
2022/01/19 10:41:02;;;;;;;64.70;35.38;;;4.90;99.90;;;;;;5030558;28;116875;-84
2022/01/19 10:43:46;;;;;;;64.05;35.38;;;4.90;99.90;;;;;;5057422;28;20524;-85
2022/01/19 10:46:39;;;;;;;62.80;32.53;;;4.90;99.90;;;;;;5034779;28;20036;-83
2022/01/19 10:49:09;;;;;;;65.45;34.13;;;5.00;99.90;;;;;;5023760;28;216936;-83
2022/01/19 10:51:39;;;;;;;70.43;37.08;;;5.00;99.90;;;;;;5062396;28;20063;-83
2022/01/19 10:54:13;;;;;;;71.15;35.90;;;5.00;99.90;;;;;;5042711;28;258890;-83
2022/01/19 10:56:41;;;;;;;69.15;36.20;;;5.00;99.90;;;;;;5056792;28;20211;-84
2022/01/19 10:59:10;;;;;;;63.78;36.92;;;5.00;99.90;;;;;;5028598;28;107781;-84
2022/01/19 11:01:41;;;;;;;64.85;35.92;;;5.00;99.90;;;;;;5076746;28;20645;-83
2022/01/19 11:04:31;;;;;;;69.60;38.90;;;5.00;99.90;;;;;;5026292;28;156845;-83
2022/01/19 11:07:05;;;;;;;66.20;34.58;;;5.00;99.90;;;;;;5062644;28;20414;-83
2022/01/19 11:09:34;;;;;;;70.63;39.55;;;5.10;99.90;;;;;;5024790;28;159404;-81
2022/01/19 11:12:07;;;;;;;73.32;37.95;;;5.10;99.90;;;;;;5056471;28;20061;-82
2022/01/19 11:14:37;;;;;;;70.32;37.03;;;5.10;99.90;;;;;;5033242;28;99483;-83
2022/01/19 11:17:04;;;;;;;67.22;36.42;;;5.10;99.90;;;;;;5034182;28;20057;-82
2022/01/19 11:19:35;;;;;;;70.00;39.25;;;5.10;99.90;;;;;;5024243;28;162574;-83
2022/01/19 11:22:31;;;;;;;72.07;40.10;;;5.10;99.90;;;;;;5042362;28;20063;-82
2022/01/19 11:25:33;;;;;;;65.63;36.63;;;5.10;99.90;;;;;;5024688;28;247981;-83
2022/01/19 11:27:59;;;;;;;68.18;38.45;;;5.10;99.90;;;;;;5027363;28;20456;-82
2022/01/19 11:30:31;;;;;;;71.00;38.50;;;5.10;99.90;;;;;;5025620;28;197354;-83
2022/01/19 11:33:24;;;;;;;72.03;39.20;;;5.10;99.90;;;;;;5043929;28;20067;-82
2022/01/19 11:35:56;;;;;;;66.82;39.25;;;5.00;99.90;;;;;;5042344;28;151979;-83
2022/01/19 11:38:43;;;;;;;73.07;37.72;;;5.00;99.90;;;;;;5059060;28;20060;-83
2022/01/19 11:41:09;;;;;;;71.50;39.38;;;5.00;99.90;;;;;;5018240;28;20067;-83
2022/01/19 11:43:39;;;;;;;75.97;41.72;;;5.00;99.90;;;;;;5054658;28;20035;-82
2022/01/19 11:46:24;;;;;;;69.03;37.08;;;5.00;99.90;;;;;;5032144;28;20051;-83
2022/01/19 11:48:51;;;;;;;72.00;39.53;;;5.00;99.90;;;;;;5016046;28;258059;-85
2022/01/19 11:51:39;;;;;;;85.78;40.75;;;5.00;99.90;;;;;;5059611;28;20056;-85
2022/01/19 11:54:27;;;;;;;82.30;40.92;;;5.00;99.90;;;;;;5057979;28;250299;-85
2022/01/19 11:57:02;;;;;;;74.25;39.85;;;5.00;99.90;;;;;;5060572;28;20045;-85
2022/01/19 11:59:43;;;;;;;76.93;38.47;;;5.00;99.90;;;;;;5050627;28;87404;-85
2022/01/19 12:02:36;;;;;;;79.60;41.65;;;5.10;99.90;;;;;;5073185;28;20074;-86
2022/01/19 12:05:12;;;;;;;82.65;40.15;;;5.10;99.90;;;;;;5032371;28;63362;-86
2022/01/19 12:07:52;;;;;;;76.90;38.58;;;5.10;99.90;;;;;;5051074;28;20060;-85
2022/01/19 12:10:37;;;;;;;85.10;40.50;;;5.10;99.90;;;;;;5057038;28;50758;-87
2022/01/19 12:16:24;;;;;;;85.95;42.83;;;5.20;99.90;;;;;;5015284;28;235102;-86
2022/01/19 12:18:54;;;;;;;86.05;41.45;;;5.10;99.90;;;;;;5010352;28;61610;-86
2022/01/19 12:21:21;;;;;;;73.87;36.57;;;5.20;99.90;;;;;;5009235;28;20060;-90
2022/01/19 12:23:49;;;;;;;78.40;39.85;;;5.30;99.90;;;;;;5040651;28;104182;-87
2022/01/19 12:26:16;;;;;;;75.18;36.90;;;5.30;99.90;;;;;;5059113;28;20089;-85
2022/01/19 12:28:52;;;;;;;80.05;40.70;;;5.20;99.90;;;;;;5020882;28;184540;-85
2022/01/19 12:31:24;;;;;;;75.85;41.65;;;5.20;99.90;;;;;;5025221;28;20057;-85
2022/01/19 12:34:08;;;;;;;86.93;44.67;;;5.20;99.90;;;;;;5009621;28;73334;-86
2022/01/19 12:37:00;;;;;;;79.90;39.05;;;5.30;99.90;;;;;;5018923;28;20048;-87
2022/01/19 12:39:29;;;;;;;77.65;41.88;;;5.30;99.90;;;;;;5009951;28;22984;-85
2022/01/19 12:42:38;;;;;;;78.55;40.03;;;5.30;99.90;;;;;;5003559;28;20041;-88
2022/01/19 12:45:28;;;;;;;65.20;33.10;;;5.30;99.90;;;;;;5019180;28;201819;-85
2022/01/19 12:47:56;;;;;;;68.45;35.55;;;5.30;99.90;;;;;;5038199;28;20049;-85
2022/01/19 12:50:29;;;;;;;74.35;38.13;;;5.30;99.90;;;;;;5007288;28;22959;-86
2022/01/19 12:52:59;;;;;;;66.22;34.33;;;5.40;99.90;;;;;;5018574;28;20053;-86
2022/01/19 12:55:29;;;;;;;70.55;35.78;;;5.40;99.90;;;;;;5044801;28;84137;-85
2022/01/19 12:57:57;;;;;;;72.55;38.28;;;5.40;99.90;;;;;;5059874;28;20056;-85
2022/01/19 13:00:25;;;;;;;81.22;41.60;;;5.40;99.90;;;;;;5053332;28;83649;-86
2022/01/19 13:02:52;;;;;;;78.32;37.58;;;5.40;99.90;;;;;;5065472;28;20078;-86
2022/01/19 13:05:20;;;;;;;72.53;37.72;;;5.40;99.90;;;;;;5027000;28;198457;-85
2022/01/19 13:07:55;;;;;;;75.70;37.38;;;5.40;99.90;;;;;;5046133;28;20063;-85
2022/01/19 13:10:46;;;;;;;67.18;34.00;;;5.50;99.90;;;;;;5055864;28;251064;-85
2022/01/19 13:13:25;;;;;;;64.30;33.22;;;5.50;99.90;;;;;;5075414;28;20053;-85
2022/01/19 13:16:01;;;;;;;73.88;37.25;;;5.50;99.90;;;;;;5040867;28;238511;-85
2022/01/19 13:18:42;;;;;;;71.05;35.40;;;5.50;99.90;;;;;;5059474;28;20060;-85
2022/01/19 13:21:14;;;;;;;71.10;36.00;;;5.60;99.90;;;;;;5034241;28;20052;-86
2022/01/19 13:24:00;;;;;;;69.38;35.83;;;5.60;99.90;;;;;;5043123;28;271901;-86
2022/01/19 13:26:49;;;;;;;74.88;36.45;;;5.60;99.90;;;;;;5037216;28;20056;-84
2022/01/19 13:29:20;;;;;;;69.25;34.95;;;5.60;99.90;;;;;;5042852;28;184738;-85
2022/01/19 13:32:00;;;;;;;71.97;36.50;;;5.50;99.90;;;;;;5065845;28;20044;-88
2022/01/19 13:34:28;;;;;;;71.57;32.38;;;5.60;99.90;;;;;;5050305;28;153952;-87
2022/01/19 13:37:01;;;;;;;65.63;32.55;;;5.60;99.90;;;;;;5059301;28;20066;-85
2022/01/19 13:39:31;;;;;;;70.63;34.58;;;5.60;99.90;;;;;;5047496;28;169025;-84
2022/01/19 13:41:58;;;;;;;67.88;35.15;;;5.60;99.90;;;;;;5045802;28;20052;-85
2022/01/19 13:44:33;;;;;;;64.78;33.30;;;5.60;99.90;;;;;;5059917;28;202520;-85
2022/01/19 13:47:15;;;;;;;68.07;34.42;;;5.60;99.90;;;;;;5059999;28;20441;-85
2022/01/19 13:49:51;;;;;;;60.35;32.33;;;5.60;99.90;;;;;;5033505;28;170100;-83
2022/01/19 13:52:24;;;;;;;68.30;34.75;;;5.60;99.90;;;;;;5044999;28;20052;-86
2022/01/19 13:54:51;;;;;;;69.97;35.42;;;5.60;99.90;;;;;;5023824;28;216342;-84
2022/01/19 13:57:29;;;;;;;54.38;29.48;;;5.60;99.90;;;;;;5064138;28;20055;-88
2022/01/19 14:00:15;;;;;;;66.38;32.88;;;5.60;99.90;;;;;;5042970;28;206127;-84
2022/01/19 14:03:04;;;;;;;60.28;30.83;;;5.60;99.90;;;;;;5058256;28;20060;-85
2022/01/19 14:05:40;;;;;;;66.47;32.88;;;5.50;99.90;;;;;;5035008;28;130582;-84
2022/01/19 14:08:06;;;;;;;71.88;34.13;;;5.40;99.90;;;;;;5077427;28;20068;-84
2022/01/19 14:10:49;;;;;;;62.35;33.25;;;5.40;99.90;;;;;;5033477;28;32431;-86
2022/01/19 14:13:26;;;;;;;64.97;32.22;;;5.40;99.90;;;;;;5057171;28;20048;-86
2022/01/19 14:16:13;;;;;;;71.10;34.65;;;5.40;99.90;;;;;;5059551;28;149656;-87
2022/01/19 14:18:40;;;;;;;64.25;32.35;;;5.40;99.90;;;;;;5012305;28;257541;-86
2022/01/19 14:21:10;;;;;;;62.67;32.67;;;5.40;99.90;;;;;;5055402;28;20048;-87
2022/01/19 14:23:37;;;;;;;67.97;34.28;;;5.40;99.90;;;;;;5030547;28;263751;-86
2022/01/19 14:26:11;;;;;;;68.05;32.33;;;5.30;99.90;;;;;;5053362;28;21029;-89